createdAt,value
2018-01-12T00:00:04.901Z,111.28
2018-01-12T00:02:32.471Z,117.20
2018-01-12T00:04:59.960Z,120.05
2018-01-12T00:07:27.581Z,123.53
2018-01-12T00:09:55.741Z,105.82
2018-01-12T00:12:26.958Z,132.50
2018-01-12T00:14:56.962Z,117.57
2018-01-12T00:17:24.819Z,108.28
2018-01-12T00:19:52.639Z,119.60
2018-01-12T00:22:20.539Z,112.97
2018-01-12T00:24:51.004Z,114.20
2018-01-12T00:27:20.047Z,109.82
2018-01-12T00:29:47.770Z,106.57
2018-01-12T00:32:15.737Z,118.17
2018-01-12T00:34:43.368Z,106.87
2018-01-12T00:37:11.781Z,134.85
2018-01-12T00:39:39.537Z,105.10
2018-01-12T00:42:07.041Z,104.93
2018-01-12T00:44:34.543Z,111.45
2018-01-12T00:47:04.028Z,105.47
2018-01-12T00:49:31.743Z,111.68
2018-01-12T00:52:00.130Z,112.75
2018-01-12T00:54:27.766Z,109.25
2018-01-12T00:56:56.057Z,106.57
2018-01-12T00:59:24.872Z,105.30
2018-01-12T01:01:52.451Z,118.93
2018-01-12T01:04:19.996Z,116.05
2018-01-12T01:06:47.675Z,135.43
2018-01-12T01:09:15.510Z,107.82
2018-01-12T01:11:43.798Z,109.82
2018-01-12T01:14:12.181Z,110.88
2018-01-12T01:16:40.340Z,107.25
2018-01-12T01:19:08.056Z,117.25
2018-01-12T01:21:35.571Z,98.85
2018-01-12T01:24:03.105Z,105.03
2018-01-12T01:26:30.915Z,113.03
2018-01-12T01:28:59.247Z,105.32
2018-01-12T01:31:26.743Z,107.00
2018-01-12T01:33:54.672Z,119.00
2018-01-12T01:36:22.277Z,103.95
2018-01-12T01:38:49.967Z,113.62
2018-01-12T01:41:18.241Z,101.18
2018-01-12T01:43:46.530Z,120.35
2018-01-12T01:46:14.809Z,99.25
2018-01-12T01:48:43.096Z,92.22
2018-01-12T01:51:11.387Z,118.43
2018-01-12T01:53:40.681Z,114.18
2018-01-12T01:56:08.964Z,114.75
2018-01-12T01:58:37.399Z,112.65
2018-01-12T02:01:07.704Z,116.82
2018-01-12T02:03:35.263Z,113.72
2018-01-12T02:06:03.158Z,101.40
2018-01-12T02:08:31.637Z,101.05
2018-01-12T02:10:59.156Z,111.65
2018-01-12T02:13:26.705Z,111.35
2018-01-12T02:15:55.039Z,124.93
2018-01-12T02:18:23.525Z,118.18
2018-01-12T02:20:51.070Z,103.93
2018-01-12T02:23:18.643Z,112.95
2018-01-12T02:25:46.164Z,113.15
2018-01-12T02:28:14.920Z,102.15
2018-01-12T02:30:42.541Z,104.75
2018-01-12T02:33:10.869Z,102.43
2018-01-12T02:35:38.637Z,114.55
2018-01-12T02:38:07.302Z,121.87
2018-01-12T02:40:34.853Z,105.93
2018-01-12T02:43:02.362Z,104.95
2018-01-12T02:45:29.876Z,102.75
2018-01-12T02:47:57.454Z,124.47
2018-01-12T02:50:25.030Z,116.10
2018-01-12T02:52:52.842Z,119.82
2018-01-12T02:55:20.969Z,120.95
2018-01-12T02:57:48.552Z,114.03
2018-01-12T03:00:16.121Z,110.72
2018-01-12T03:02:48.642Z,100.03
2018-01-12T03:05:17.183Z,114.70
2018-01-12T03:07:44.703Z,108.57
2018-01-12T03:10:13.707Z,97.72
2018-01-12T03:12:41.250Z,114.57
2018-01-12T03:15:09.528Z,98.62
2018-01-12T03:17:37.034Z,116.88
2018-01-12T03:20:04.745Z,129.05
2018-01-12T03:22:32.254Z,129.48
2018-01-12T03:25:00.510Z,103.40
2018-01-12T03:27:28.802Z,126.40
2018-01-12T03:29:56.320Z,118.68
2018-01-12T03:32:23.854Z,122.32
2018-01-12T03:34:51.591Z,110.78
2018-01-12T03:37:19.864Z,126.90
2018-01-12T03:39:50.134Z,119.80
2018-01-12T03:42:17.693Z,125.78
2018-01-12T03:44:46.072Z,128.27
2018-01-12T03:47:13.571Z,131.60
2018-01-12T03:49:41.104Z,142.87
2018-01-12T03:52:08.628Z,139.62
2018-01-12T03:54:36.217Z,129.25
2018-01-12T03:57:04.704Z,116.07
2018-01-12T03:59:32.265Z,148.90
2018-01-12T04:01:59.866Z,128.40
2018-01-12T04:04:27.536Z,109.45
2018-01-12T04:06:56.055Z,122.03
2018-01-12T04:09:23.781Z,123.80
2018-01-12T04:11:51.303Z,127.10
2018-01-12T04:14:19.589Z,161.62
2018-01-12T04:16:47.886Z,131.60
2018-01-12T04:19:16.626Z,113.28
2018-01-12T04:21:45.513Z,131.80
2018-01-12T04:24:13.098Z,115.00
2018-01-12T04:26:40.686Z,124.40
2018-01-12T04:29:08.965Z,122.10
2018-01-12T04:31:37.237Z,122.07
2018-01-12T04:34:05.511Z,128.73
2018-01-12T04:36:33.008Z,109.22
2018-01-12T04:39:00.540Z,107.10
2018-01-12T04:41:28.094Z,124.40
2018-01-12T04:43:55.628Z,123.50
2018-01-12T04:46:23.938Z,109.05
2018-01-12T04:48:51.801Z,124.68
2018-01-12T04:51:19.331Z,127.10
2018-01-12T04:53:46.975Z,136.23
2018-01-12T04:56:15.211Z,104.40
2018-01-12T04:58:43.139Z,93.25
2018-01-12T05:01:12.058Z,84.00
2018-01-12T05:03:39.640Z,95.30
2018-01-12T05:06:07.170Z,111.00
2018-01-12T05:08:35.511Z,91.93
2018-01-12T05:11:03.797Z,100.00
2018-01-12T05:13:32.312Z,98.78
2018-01-12T05:15:59.867Z,89.13
2018-01-12T05:18:28.170Z,91.68
2018-01-12T05:20:56.073Z,92.55
2018-01-12T05:23:23.636Z,110.85
2018-01-12T05:25:51.398Z,99.68
2018-01-12T05:28:19.736Z,118.30
2018-01-12T05:30:47.765Z,86.10
2018-01-12T05:33:16.760Z,78.12
2018-01-12T05:35:44.584Z,73.78
2018-01-12T05:38:12.629Z,99.82
2018-01-12T05:40:42.536Z,81.95
2018-01-12T05:43:10.906Z,82.55
2018-01-12T05:45:38.444Z,100.35
2018-01-12T05:48:06.194Z,99.40
2018-01-12T05:50:33.817Z,80.57
2018-01-12T05:53:01.318Z,85.05
2018-01-12T05:55:28.883Z,81.72
2018-01-12T05:57:56.453Z,87.72
2018-01-12T06:00:24.832Z,92.22
2018-01-12T06:03:04.173Z,80.90
2018-01-12T06:05:43.662Z,88.20
2018-01-12T06:08:11.209Z,80.32
2018-01-12T06:10:39.045Z,80.00
2018-01-12T06:13:07.610Z,84.60
2018-01-12T06:15:35.169Z,77.35
2018-01-12T06:18:03.462Z,80.30
2018-01-12T06:20:30.994Z,64.28
2018-01-12T06:22:59.196Z,58.22
2018-01-12T06:25:27.510Z,74.68
2018-01-12T06:27:55.165Z,63.65
2018-01-12T06:30:22.675Z,64.10
2018-01-12T06:32:50.190Z,60.60
2018-01-12T06:35:17.688Z,69.65
2018-01-12T06:37:45.248Z,66.62
2018-01-12T06:40:12.887Z,60.88
2018-01-12T06:42:40.381Z,64.37
2018-01-12T06:45:09.132Z,61.97
2018-01-12T06:47:36.825Z,56.88
2018-01-12T06:50:04.352Z,55.42
2018-01-12T06:52:31.874Z,49.58
2018-01-12T06:54:59.881Z,46.47
2018-01-12T06:57:28.157Z,49.97
2018-01-12T06:59:56.560Z,44.88
2018-01-12T07:02:24.093Z,48.65
2018-01-12T07:04:51.656Z,44.35
2018-01-12T07:07:19.180Z,48.17
2018-01-12T07:09:46.736Z,53.72
2018-01-12T07:12:14.273Z,44.47
2018-01-12T07:14:42.848Z,48.17
2018-01-12T07:17:10.372Z,45.55
2018-01-12T07:19:37.880Z,50.03
2018-01-12T07:22:18.162Z,40.05
2018-01-12T07:24:46.427Z,41.28
2018-01-12T07:27:13.962Z,41.67
2018-01-12T07:29:41.828Z,49.80
2018-01-12T07:32:09.366Z,45.33
2018-01-12T07:34:36.927Z,54.05
2018-01-12T07:37:05.913Z,48.80
2018-01-12T07:39:33.432Z,48.15
2018-01-12T07:42:01.734Z,41.45
2018-01-12T07:44:29.381Z,44.72
2018-01-12T07:46:56.995Z,49.05
2018-01-12T07:49:24.561Z,45.00
2018-01-12T07:51:52.853Z,42.60
2018-01-12T07:54:20.806Z,42.80
2018-01-12T07:56:48.653Z,47.00
2018-01-12T07:59:16.986Z,47.55
2018-01-12T08:01:52.780Z,50.95
2018-01-12T08:04:21.096Z,46.33
2018-01-12T08:06:49.032Z,49.08
2018-01-12T08:09:17.360Z,53.60
2018-01-12T08:11:46.263Z,48.80
2018-01-12T08:14:14.064Z,42.70
2018-01-12T08:16:44.116Z,50.47
2018-01-12T08:19:12.246Z,45.83
2018-01-12T08:21:39.725Z,49.53
2018-01-12T08:24:08.065Z,49.08
2018-01-12T08:26:35.721Z,53.90
2018-01-12T08:29:06.726Z,47.90
2018-01-12T08:31:35.142Z,52.13
2018-01-12T08:34:03.556Z,44.83
2018-01-12T08:36:31.079Z,53.40
2018-01-12T08:38:59.132Z,44.20
2018-01-12T08:41:26.735Z,46.33
2018-01-12T08:43:54.544Z,47.58
2018-01-12T08:46:22.485Z,47.95
2018-01-12T08:48:50.151Z,46.58
2018-01-12T08:51:17.704Z,47.05
2018-01-12T08:53:46.214Z,52.58
2018-01-12T08:56:13.803Z,57.42
2018-01-12T08:58:41.328Z,44.80
2018-01-12T09:01:09.350Z,46.58
2018-01-12T09:03:37.426Z,45.00
2018-01-12T09:06:06.009Z,48.83
2018-01-12T09:08:33.841Z,51.65
2018-01-12T09:11:02.461Z,49.55
2018-01-12T09:13:42.844Z,49.20
2018-01-12T09:16:11.517Z,54.13
2018-01-12T09:18:50.893Z,45.53
2018-01-12T09:21:26.469Z,54.05
2018-01-12T09:23:55.536Z,50.50
2018-01-12T09:26:23.199Z,53.40
2018-01-12T09:28:51.081Z,43.10
2018-01-12T09:31:18.620Z,48.75
2018-01-12T09:33:47.790Z,57.97
2018-01-12T09:36:15.384Z,47.65
2018-01-12T09:38:53.590Z,52.38
2018-01-12T09:41:22.892Z,53.50
2018-01-12T09:43:51.152Z,46.85
2018-01-12T09:46:18.736Z,50.85
2018-01-12T09:48:51.705Z,58.00
2018-01-12T09:51:20.010Z,53.78
2018-01-12T09:53:49.076Z,45.53
2018-01-12T09:56:16.601Z,50.20
2018-01-12T09:58:45.893Z,45.85
2018-01-12T10:04:23.991Z,49.50
2018-01-12T10:06:51.522Z,46.92
2018-01-12T10:09:33.923Z,52.25
2018-01-12T10:12:02.254Z,57.88
2018-01-12T10:14:29.775Z,49.00
2018-01-12T10:16:57.316Z,44.53
2018-01-12T10:19:25.134Z,60.17
2018-01-12T10:21:53.341Z,39.55
2018-01-12T10:24:20.874Z,44.30
2018-01-12T10:26:50.216Z,47.55
2018-01-12T10:29:39.925Z,53.35
2018-01-12T10:32:08.292Z,46.83
2018-01-12T10:34:44.692Z,50.40
2018-01-12T10:37:13.626Z,47.15
2018-01-12T10:39:54.533Z,55.72
2018-01-12T10:42:22.056Z,58.67
2018-01-12T10:44:50.692Z,60.17
2018-01-12T10:47:26.049Z,50.45
2018-01-12T10:49:57.277Z,51.80
2018-01-12T10:52:38.523Z,49.58
2018-01-12T10:55:06.008Z,62.62
2018-01-12T10:57:33.505Z,54.53
2018-01-12T11:00:01.802Z,38.35
2018-01-12T11:02:29.695Z,42.60
2018-01-12T11:04:57.204Z,44.75
2018-01-12T11:07:25.464Z,45.95
2018-01-12T11:09:53.001Z,42.55
2018-01-12T11:12:20.547Z,45.85
2018-01-12T11:14:48.077Z,50.03
2018-01-12T11:17:16.399Z,53.13
2018-01-12T11:19:44.232Z,55.28
2018-01-12T11:22:12.571Z,54.95
2018-01-12T11:24:40.106Z,48.50
2018-01-12T11:27:07.617Z,57.85
2018-01-12T11:29:36.649Z,53.80
2018-01-12T11:32:05.253Z,44.92
2018-01-12T11:34:33.538Z,50.35
2018-01-12T11:37:01.074Z,54.38
2018-01-12T11:39:29.361Z,51.65
2018-01-12T11:41:57.474Z,51.80
2018-01-12T11:44:24.996Z,49.15
2018-01-12T11:46:52.517Z,51.25
2018-01-12T11:49:20.037Z,56.58
2018-01-12T11:51:47.572Z,48.95
2018-01-12T11:54:15.891Z,49.00
2018-01-12T11:56:43.420Z,55.92
2018-01-12T11:59:11.827Z,74.47
2018-01-12T12:01:40.107Z,51.60
2018-01-12T12:04:08.686Z,60.00
2018-01-12T12:06:37.014Z,63.15
2018-01-12T12:09:04.522Z,55.03
2018-01-12T12:11:32.841Z,58.58
2018-01-12T12:14:00.356Z,53.38
2018-01-12T12:16:28.735Z,61.83
2018-01-12T12:18:56.230Z,52.03
2018-01-12T12:21:24.518Z,53.03
2018-01-12T12:23:52.781Z,48.83
2018-01-12T12:26:21.041Z,53.10
2018-01-12T12:28:48.615Z,58.42
2018-01-12T12:31:16.215Z,58.13
2018-01-12T12:33:44.290Z,51.92
2018-01-12T12:36:12.525Z,52.42
2018-01-12T12:38:40.838Z,62.55
2018-01-12T12:41:09.161Z,50.60
2018-01-12T12:43:36.739Z,57.30
2018-01-12T12:46:05.850Z,54.28
2018-01-12T12:48:33.360Z,59.25
2018-01-12T12:51:00.929Z,60.17
2018-01-12T12:53:28.484Z,65.05
2018-01-12T12:55:56.088Z,55.58
2018-01-12T12:58:23.837Z,68.20
2018-01-12T13:00:52.214Z,63.58
2018-01-12T13:03:19.881Z,72.70
2018-01-12T13:05:47.398Z,59.92
2018-01-12T13:08:14.938Z,61.65
2018-01-12T13:10:43.320Z,54.65
2018-01-12T13:13:10.857Z,46.00
2018-01-12T13:15:41.057Z,59.10
2018-01-12T13:18:10.424Z,59.30
2018-01-12T13:20:37.936Z,69.30
2018-01-12T13:23:06.168Z,59.33
2018-01-12T13:25:33.708Z,65.78
2018-01-12T13:28:01.233Z,53.60
2018-01-12T13:30:28.956Z,59.45
2018-01-12T13:32:56.773Z,59.47
2018-01-12T13:35:24.518Z,65.45
2018-01-12T13:37:52.052Z,50.03
2018-01-12T13:40:19.545Z,54.78
2018-01-12T13:42:48.060Z,66.20
2018-01-12T13:45:15.609Z,52.95
2018-01-12T13:47:43.925Z,53.53
2018-01-12T13:50:12.310Z,49.22
2018-01-12T13:52:39.854Z,53.72
2018-01-12T13:55:07.759Z,63.53
2018-01-12T13:57:36.037Z,56.72
2018-01-12T14:00:03.565Z,63.50
2018-01-12T14:02:31.829Z,63.42
2018-01-12T14:05:01.108Z,59.65
2018-01-12T14:07:28.973Z,70.82
2018-01-12T14:09:56.464Z,60.70
2018-01-12T14:12:23.991Z,57.17
2018-01-12T14:14:51.552Z,58.80
2018-01-12T14:17:19.107Z,68.18
2018-01-12T14:19:46.773Z,63.22
2018-01-12T14:22:14.294Z,54.78
2018-01-12T14:24:42.585Z,54.00
2018-01-12T14:27:10.985Z,63.80
2018-01-12T14:29:38.644Z,66.50
2018-01-12T14:32:06.651Z,66.18
2018-01-12T14:34:34.170Z,69.80
2018-01-12T14:37:02.459Z,74.70
2018-01-12T14:39:29.964Z,53.55
2018-01-12T14:41:57.468Z,60.60
2018-01-12T14:44:25.745Z,73.68
2018-01-12T14:46:54.018Z,63.10
2018-01-12T14:49:22.956Z,61.42
2018-01-12T14:51:51.394Z,60.00
2018-01-12T14:54:18.992Z,66.53
2018-01-12T14:56:48.416Z,56.33
2018-01-12T14:59:15.954Z,62.47
2018-01-12T15:01:44.229Z,68.40
2018-01-12T15:04:12.764Z,59.83
2018-01-12T15:06:40.315Z,59.42
2018-01-12T15:09:07.957Z,54.90
2018-01-12T15:11:36.646Z,55.55
2018-01-12T15:14:04.955Z,58.53
2018-01-12T15:16:32.481Z,58.15
2018-01-12T15:19:01.178Z,60.95
2018-01-12T15:21:29.577Z,57.38
2018-01-12T15:23:57.088Z,61.03
2018-01-12T15:26:24.697Z,70.00
2018-01-12T15:28:52.291Z,62.10
2018-01-12T15:31:19.929Z,55.75
2018-01-12T15:33:47.741Z,63.30
2018-01-12T15:36:15.359Z,65.68
2018-01-12T15:38:43.635Z,84.47
2018-01-12T15:41:11.925Z,58.20
2018-01-12T15:43:40.314Z,57.88
2018-01-12T15:46:09.849Z,66.47
2018-01-12T15:48:38.059Z,64.87
2018-01-12T15:51:05.548Z,68.43
2018-01-12T15:53:33.845Z,67.57
2018-01-12T15:56:02.104Z,62.10
2018-01-12T15:58:30.440Z,75.68
2018-01-12T16:00:57.948Z,66.07
2018-01-12T16:03:26.389Z,75.95
2018-01-12T16:05:54.139Z,70.05
2018-01-12T16:08:21.666Z,77.57
2018-01-12T16:10:49.274Z,71.50
2018-01-12T16:13:16.818Z,64.22
2018-01-12T16:15:44.355Z,80.85
2018-01-12T16:18:12.635Z,81.40
2018-01-12T16:20:40.920Z,76.37
2018-01-12T16:23:09.769Z,75.75
2018-01-12T16:25:37.457Z,76.40
2018-01-12T16:28:04.996Z,93.45
2018-01-12T16:30:32.582Z,84.82
2018-01-12T16:33:00.080Z,87.05
2018-01-12T16:35:28.379Z,71.10
2018-01-12T16:37:55.933Z,78.12
2018-01-12T16:40:23.526Z,76.43
2018-01-12T16:42:52.809Z,88.32
2018-01-12T16:45:21.083Z,77.60
2018-01-12T16:47:50.235Z,75.95
2018-01-12T16:50:17.769Z,83.47
2018-01-12T16:52:45.277Z,84.87
2018-01-12T16:55:12.912Z,65.97
2018-01-12T16:57:40.502Z,87.55
2018-01-12T17:00:08.104Z,80.85
2018-01-12T17:02:37.536Z,78.65
2018-01-12T17:05:05.210Z,70.40
2018-01-12T17:07:32.702Z,69.90
2018-01-12T17:10:00.214Z,69.45
2018-01-12T17:12:27.779Z,66.93
2018-01-12T17:14:56.342Z,67.93
2018-01-12T17:17:24.628Z,71.65
2018-01-12T17:19:53.059Z,78.55
2018-01-12T17:22:20.589Z,67.18
2018-01-12T17:24:48.138Z,56.97
2018-01-12T17:27:16.505Z,59.00
2018-01-12T17:29:44.036Z,62.95
2018-01-12T17:32:12.166Z,79.47
2018-01-12T17:34:40.446Z,64.55
2018-01-12T17:37:08.717Z,58.75
2018-01-12T17:39:37.034Z,58.53
2018-01-12T17:42:04.528Z,52.92
2018-01-12T17:44:32.404Z,71.18
2018-01-12T17:47:00.101Z,75.28
2018-01-12T17:49:28.517Z,57.35
2018-01-12T17:51:56.541Z,66.68
2018-01-12T17:54:24.220Z,59.88
2018-01-12T17:56:51.764Z,75.97
2018-01-12T17:59:19.496Z,59.83
2018-01-12T18:01:47.253Z,66.15
2018-01-12T18:04:15.569Z,61.22
2018-01-12T18:06:44.166Z,64.00
2018-01-12T18:09:13.016Z,60.12
2018-01-12T18:11:41.850Z,70.00
2018-01-12T18:14:09.422Z,62.97
2018-01-12T18:16:37.463Z,78.10
2018-01-12T18:19:05.822Z,70.03
2018-01-12T18:21:33.696Z,65.85
2018-01-12T18:24:02.751Z,61.92
2018-01-12T18:26:31.449Z,64.82
2018-01-12T18:28:58.981Z,64.45
2018-01-12T18:31:26.506Z,68.22
2018-01-12T18:33:54.820Z,76.12
2018-01-12T18:36:22.460Z,62.03
2018-01-12T18:38:50.763Z,72.20
2018-01-12T18:41:18.269Z,60.55
2018-01-12T18:43:46.660Z,67.65
2018-01-12T18:46:14.154Z,69.18
2018-01-12T18:48:42.468Z,65.50
2018-01-12T18:51:10.389Z,69.05
2018-01-12T18:53:38.745Z,72.95
2018-01-12T18:56:06.389Z,68.37
2018-01-12T18:58:34.050Z,78.95
2018-01-12T19:01:01.581Z,73.00
2018-01-12T19:03:29.879Z,78.05
2018-01-12T19:05:58.423Z,69.90
2018-01-12T19:08:25.929Z,93.28
2018-01-12T19:10:53.506Z,74.47
2018-01-12T19:13:21.471Z,80.93
2018-01-12T19:15:49.173Z,81.82
2018-01-12T19:18:16.698Z,75.65
2018-01-12T19:20:44.291Z,76.90
2018-01-12T19:23:11.827Z,75.15
2018-01-12T19:25:39.368Z,89.07
2018-01-12T19:28:07.662Z,91.20
2018-01-12T19:30:35.367Z,80.87
2018-01-12T19:33:03.720Z,87.32
2018-01-12T19:35:31.284Z,89.37
2018-01-12T19:38:00.409Z,70.82
2018-01-12T19:40:27.937Z,80.45
2018-01-12T19:42:56.210Z,92.07
2018-01-12T19:45:27.036Z,83.40
2018-01-12T19:47:54.629Z,83.45
2018-01-12T19:50:22.928Z,93.53
2018-01-12T19:52:50.858Z,84.90
2018-01-12T19:55:18.379Z,74.15
2018-01-12T19:57:45.911Z,81.18
2018-01-12T20:00:13.431Z,71.85
2018-01-12T20:02:40.988Z,78.65
2018-01-12T20:05:08.497Z,81.43
2018-01-12T20:07:36.901Z,74.95
2018-01-12T20:10:04.487Z,65.03
2018-01-12T20:12:32.108Z,68.55
2018-01-12T20:14:59.670Z,77.40
2018-01-12T20:17:27.386Z,80.55
2018-01-12T20:19:55.003Z,89.30
2018-01-12T20:22:23.380Z,84.35
2018-01-12T20:24:51.759Z,80.35
2018-01-12T20:27:20.087Z,95.80
2018-01-12T20:29:47.728Z,83.43
2018-01-12T20:32:16.078Z,81.20
2018-01-12T20:34:44.672Z,75.07
2018-01-12T20:37:12.288Z,81.47
2018-01-12T20:39:39.816Z,81.72
2018-01-12T20:42:08.224Z,90.20
2018-01-12T20:44:35.729Z,83.47
2018-01-12T20:47:06.285Z,83.62
2018-01-12T20:49:33.815Z,79.70
2018-01-12T20:52:01.451Z,76.35
2018-01-12T20:54:29.015Z,86.20
2018-01-12T20:56:56.557Z,88.32
2018-01-12T20:59:24.127Z,78.00
2018-01-12T21:01:51.726Z,79.20
2018-01-12T21:04:20.805Z,91.35
2018-01-12T21:06:48.326Z,79.07
2018-01-12T21:09:17.242Z,90.90
2018-01-12T21:11:45.505Z,98.03
2018-01-12T21:14:13.052Z,77.40
2018-01-12T21:16:40.582Z,91.70
2018-01-12T21:19:08.131Z,104.18
2018-01-12T21:21:35.835Z,105.03
2018-01-12T21:24:04.210Z,80.50
2018-01-12T21:26:32.540Z,96.72
2018-01-12T21:29:02.076Z,76.72
2018-01-12T21:31:29.758Z,84.10
2018-01-12T21:33:57.539Z,76.22
2018-01-12T21:36:25.460Z,86.00
2018-01-12T21:38:53.770Z,87.85
2018-01-12T21:41:21.262Z,85.15
2018-01-12T21:43:48.790Z,140.90
2018-01-12T21:46:16.765Z,86.43
2018-01-12T21:48:45.231Z,88.72
2018-01-12T21:51:12.995Z,77.28
2018-01-12T21:53:40.679Z,80.40
2018-01-12T21:56:08.962Z,79.07
2018-01-12T21:58:36.501Z,95.87
2018-01-12T22:01:04.380Z,75.53
2018-01-12T22:03:32.670Z,83.62
2018-01-12T22:06:00.965Z,84.47
2018-01-12T22:08:28.568Z,71.85
2018-01-12T22:10:56.204Z,73.62
2018-01-12T22:13:24.056Z,92.57
2018-01-12T22:15:52.331Z,90.43
2018-01-12T22:18:22.189Z,88.03
2018-01-12T22:20:50.875Z,79.32
2018-01-12T22:23:18.375Z,81.05
2018-01-12T22:25:45.887Z,77.80
2018-01-12T22:28:14.208Z,81.03
2018-01-12T22:30:41.730Z,87.95
2018-01-12T22:33:09.271Z,90.57
2018-01-12T22:35:37.978Z,89.87
2018-01-12T22:38:05.492Z,82.75
2018-01-12T22:40:33.821Z,85.47
2018-01-12T22:43:01.370Z,89.05
2018-01-12T22:45:28.903Z,79.45
2018-01-12T22:47:56.403Z,82.20
2018-01-12T22:50:24.020Z,82.90
2018-01-12T22:52:52.121Z,78.22
2018-01-12T22:55:19.654Z,87.88
2018-01-12T22:57:47.147Z,77.68
2018-01-12T23:00:14.770Z,75.68
2018-01-12T23:02:42.324Z,82.15
2018-01-12T23:05:10.153Z,83.82
2018-01-12T23:07:39.023Z,83.72
2018-01-12T23:10:06.628Z,73.62
2018-01-12T23:12:34.929Z,71.12
2018-01-12T23:15:03.322Z,73.53
2018-01-12T23:17:30.882Z,78.05
2018-01-12T23:19:58.428Z,77.20
2018-01-12T23:22:26.828Z,70.65
2018-01-12T23:24:54.347Z,85.62
2018-01-12T23:27:22.509Z,80.07
2018-01-12T23:29:50.092Z,71.22
2018-01-12T23:32:18.461Z,77.50
2018-01-12T23:34:46.141Z,78.00
2018-01-12T23:37:14.388Z,78.43
2018-01-12T23:39:41.925Z,73.93
2018-01-12T23:42:10.629Z,84.22
2018-01-12T23:44:38.302Z,84.47
2018-01-12T23:47:06.188Z,90.47
2018-01-12T23:49:33.756Z,72.15
2018-01-12T23:52:01.657Z,81.82
2018-01-12T23:54:29.183Z,77.28
2018-01-12T23:56:57.233Z,73.28
2018-01-12T23:59:25.519Z,83.10
